PHJEN LEBL-LFPB
Flight info
| Callsign | PHJEN |
|---|---|
| Flight time | 2h 5m |
| Altitude | 30000 |
| Route | OLOXO DCT OKABI DCT PERIG DCT ADABI DCT PEPAX UT182 KEPER |
| Aircraft | SF50/L-SDGRWY/L |
Departure
| Time | 2026-04-15 16:02 |
|---|---|
| Airport | Josep Tarradellas Barcelona-El Prat Airport (LEBL) |
Arrival
| Time | 2026-04-15 18:08 |
|---|---|
| Airport | Paris-Le Bourget International Airport (LFPB) |
| Time | Latitude | Longitude | Altitude | Speed | Heading |
|---|---|---|---|---|---|
| 2026-04-15 15:32 | 41.30670 | 2.08828 | 17 ft | 0 kts | 246° |
| 2026-04-15 15:53 | 41.30669 | 2.08826 | 17 ft | 0 kts | 248° |
| 2026-04-15 15:53 | 41.30653 | 2.08791 | 17 ft | 8 kts | 195° |
| 2026-04-15 15:53 | 41.30608 | 2.08812 | 16 ft | 13 kts | 170° |
| 2026-04-15 15:53 | 41.30537 | 2.08770 | 15 ft | 11 kts | 163° |
| 2026-04-15 15:54 | 41.30477 | 2.08800 | 14 ft | 8 kts | 158° |
| 2026-04-15 15:54 | 41.30435 | 2.08851 | 12 ft | 11 kts | 125° |
| 2026-04-15 15:54 | 41.30371 | 2.08848 | 11 ft | 11 kts | 246° |
| 2026-04-15 15:54 | 41.30333 | 2.08741 | 11 ft | 15 kts | 244° |
| 2026-04-15 15:55 | 41.30282 | 2.08593 | 11 ft | 20 kts | 242° |
| 2026-04-15 15:55 | 41.30224 | 2.08418 | 12 ft | 22 kts | 248° |
| 2026-04-15 15:55 | 41.30156 | 2.08219 | 11 ft | 26 kts | 244° |
| 2026-04-15 15:55 | 41.30095 | 2.08032 | 11 ft | 13 kts | 245° |
| 2026-04-15 15:56 | 41.30034 | 2.08044 | 12 ft | 16 kts | 96° |
| 2026-04-15 15:56 | 41.30066 | 2.08172 | 13 ft | 15 kts | 68° |
| 2026-04-15 15:56 | 41.30020 | 2.08277 | 12 ft | 19 kts | 152° |
| 2026-04-15 15:56 | 41.29986 | 2.08297 | 13 ft | 0 kts | 148° |
| 2026-04-15 15:57 | 41.29957 | 2.08315 | 15 ft | 11 kts | 158° |
| 2026-04-15 15:57 | 41.29813 | 2.08396 | 14 ft | 29 kts | 157° |
| 2026-04-15 15:58 | 41.29613 | 2.08522 | 11 ft | 34 kts | 155° |
| 2026-04-15 15:58 | 41.29385 | 2.08660 | 10 ft | 38 kts | 155° |
| 2026-04-15 15:58 | 41.29137 | 2.08807 | 10 ft | 40 kts | 157° |
| 2026-04-15 15:58 | 41.29002 | 2.08908 | 9 ft | 16 kts | 172° |
| 2026-04-15 15:59 | 41.28967 | 2.09035 | 10 ft | 19 kts | 72° |
| 2026-04-15 15:59 | 41.29025 | 2.09206 | 10 ft | 22 kts | 66° |
| 2026-04-15 15:59 | 41.29097 | 2.09409 | 11 ft | 27 kts | 67° |
| 2026-04-15 15:59 | 41.29178 | 2.09652 | 10 ft | 31 kts | 67° |
| 2026-04-15 16:00 | 41.29269 | 2.09921 | 11 ft | 22 kts | 66° |
| 2026-04-15 16:00 | 41.29263 | 2.10056 | 9 ft | 14 kts | 110° |
| 2026-04-15 16:00 | 41.29258 | 2.10074 | 9 ft | 0 kts | 112° |
| 2026-04-15 16:01 | 41.29253 | 2.10090 | 9 ft | 11 kts | 112° |
| 2026-04-15 16:01 | 41.29248 | 2.10232 | 8 ft | 20 kts | 66° |
| 2026-04-15 16:01 | 41.29210 | 2.10290 | 9 ft | 12 kts | 245° |
| 2026-04-15 16:02 | 41.29152 | 2.10132 | 11 ft | 42 kts | 243° |
| 2026-04-15 16:02 | 41.28927 | 2.09462 | 70 ft | 107 kts | 246° |
| 2026-04-15 16:02 | 41.28614 | 2.08419 | 381 ft | 137 kts | 243° |
| 2026-04-15 16:02 | 41.28099 | 2.07249 | 781 ft | 154 kts | 233° |
| 2026-04-15 16:03 | 41.27295 | 2.06222 | 1236 ft | 168 kts | 217° |
| 2026-04-15 16:03 | 41.26143 | 2.05455 | 1488 ft | 211 kts | 189° |
| 2026-04-15 16:03 | 41.24559 | 2.05514 | 1682 ft | 242 kts | 177° |
| 2026-04-15 16:03 | 41.22884 | 2.05487 | 1931 ft | 238 kts | 188° |
| 2026-04-15 16:04 | 41.21291 | 2.04909 | 2114 ft | 237 kts | 200° |
| 2026-04-15 16:04 | 41.19749 | 2.04145 | 2252 ft | 238 kts | 203° |
| 2026-04-15 16:04 | 41.18363 | 2.02913 | 2266 ft | 243 kts | 223° |
| 2026-04-15 16:04 | 41.17307 | 2.01247 | 2752 ft | 229 kts | 233° |
| 2026-04-15 16:05 | 41.16305 | 1.99515 | 2680 ft | 244 kts | 232° |
| 2026-04-15 16:05 | 41.15237 | 1.97714 | 2594 ft | 251 kts | 232° |
| 2026-04-15 16:05 | 41.14156 | 1.95874 | 2516 ft | 254 kts | 232° |
| 2026-04-15 16:05 | 41.13283 | 1.93884 | 2755 ft | 241 kts | 249° |
| 2026-04-15 16:06 | 41.12795 | 1.91838 | 3175 ft | 233 kts | 254° |
| 2026-04-15 16:06 | 41.12310 | 1.89767 | 3176 ft | 242 kts | 253° |
| 2026-04-15 16:06 | 41.11802 | 1.87622 | 3325 ft | 240 kts | 255° |
| 2026-04-15 16:06 | 41.11545 | 1.85460 | 3507 ft | 239 kts | 271° |
| 2026-04-15 16:07 | 41.11791 | 1.83280 | 3640 ft | 240 kts | 287° |
| 2026-04-15 16:07 | 41.12397 | 1.81223 | 3801 ft | 239 kts | 293° |
| 2026-04-15 16:07 | 41.13668 | 1.77172 | 4158 ft | 237 kts | 302° |
| 2026-04-15 16:08 | 41.14733 | 1.75512 | 4332 ft | 237 kts | 318° |
| 2026-04-15 16:08 | 41.16094 | 1.74307 | 4523 ft | 235 kts | 332° |
| 2026-04-15 16:08 | 41.17492 | 1.73280 | 5006 ft | 221 kts | 330° |
| 2026-04-15 16:08 | 41.18785 | 1.72296 | 5617 ft | 208 kts | 331° |
| 2026-04-15 16:09 | 41.20012 | 1.71378 | 6233 ft | 198 kts | 332° |
| 2026-04-15 16:09 | 41.21207 | 1.70630 | 6831 ft | 187 kts | 344° |
| 2026-04-15 16:09 | 41.22464 | 1.70385 | 7429 ft | 179 kts | 354° |
| 2026-04-15 16:09 | 41.23690 | 1.70190 | 7877 ft | 183 kts | 353° |
| 2026-04-15 16:10 | 41.25063 | 1.69965 | 7775 ft | 212 kts | 353° |
| 2026-04-15 16:10 | 41.26558 | 1.69732 | 8040 ft | 213 kts | 353° |
| 2026-04-15 16:10 | 41.27993 | 1.69511 | 8575 ft | 204 kts | 354° |
| 2026-04-15 16:10 | 41.29388 | 1.69293 | 9081 ft | 200 kts | 353° |
| 2026-04-15 16:11 | 41.30759 | 1.69079 | 9589 ft | 197 kts | 353° |
| 2026-04-15 16:11 | 41.32107 | 1.68865 | 10102 ft | 193 kts | 353° |
| 2026-04-15 16:11 | 41.33439 | 1.68658 | 10572 ft | 191 kts | 353° |
| 2026-04-15 16:11 | 41.34745 | 1.68450 | 11039 ft | 188 kts | 353° |
| 2026-04-15 16:12 | 41.36033 | 1.68248 | 11518 ft | 184 kts | 353° |
| 2026-04-15 16:12 | 41.37296 | 1.68053 | 12008 ft | 182 kts | 353° |
| 2026-04-15 16:12 | 41.38540 | 1.67857 | 12501 ft | 178 kts | 353° |
| 2026-04-15 16:12 | 41.39764 | 1.67662 | 13006 ft | 175 kts | 353° |
| 2026-04-15 16:13 | 41.40965 | 1.67476 | 13518 ft | 172 kts | 353° |
| 2026-04-15 16:13 | 41.42143 | 1.67292 | 14024 ft | 169 kts | 353° |
| 2026-04-15 16:13 | 41.43297 | 1.67110 | 14483 ft | 165 kts | 353° |
| 2026-04-15 16:13 | 41.44411 | 1.66938 | 14943 ft | 161 kts | 353° |
| 2026-04-15 16:14 | 41.45512 | 1.66764 | 15418 ft | 157 kts | 352° |
| 2026-04-15 16:14 | 41.46585 | 1.66595 | 15898 ft | 153 kts | 352° |
| 2026-04-15 16:14 | 41.47625 | 1.66429 | 16384 ft | 148 kts | 352° |
| 2026-04-15 16:14 | 41.48633 | 1.66272 | 16874 ft | 143 kts | 352° |
| 2026-04-15 16:15 | 41.49598 | 1.66119 | 17372 ft | 136 kts | 352° |
| 2026-04-15 16:15 | 41.50519 | 1.65971 | 17879 ft | 131 kts | 351° |
| 2026-04-15 16:15 | 41.51403 | 1.65830 | 18384 ft | 124 kts | 351° |
| 2026-04-15 16:15 | 41.52236 | 1.65696 | 18825 ft | 116 kts | 351° |
| 2026-04-15 16:16 | 41.53026 | 1.65569 | 19265 ft | 112 kts | 351° |
| 2026-04-15 16:16 | 41.53784 | 1.65453 | 19717 ft | 107 kts | 350° |
| 2026-04-15 16:16 | 41.54497 | 1.65338 | 20167 ft | 99 kts | 350° |
| 2026-04-15 16:16 | 41.55148 | 1.65233 | 20600 ft | 89 kts | 348° |
| 2026-04-15 16:17 | 41.55735 | 1.65141 | 20910 ft | 85 kts | 349° |
| 2026-04-15 16:17 | 41.56333 | 1.65037 | 21180 ft | 85 kts | 349° |
| 2026-04-15 16:17 | 41.56925 | 1.64949 | 21411 ft | 88 kts | 347° |
| 2026-04-15 16:17 | 41.57527 | 1.64859 | 21695 ft | 85 kts | 348° |
| 2026-04-15 16:18 | 41.58131 | 1.64753 | 21917 ft | 89 kts | 349° |
| 2026-04-15 16:18 | 41.58731 | 1.64661 | 22181 ft | 88 kts | 347° |
| 2026-04-15 16:18 | 41.59348 | 1.64567 | 22433 ft | 87 kts | 348° |
| 2026-04-15 16:18 | 41.59952 | 1.64459 | 22649 ft | 91 kts | 348° |
| 2026-04-15 16:19 | 41.60568 | 1.64368 | 22960 ft | 86 kts | 346° |
| 2026-04-15 16:19 | 41.61185 | 1.64266 | 23153 ft | 93 kts | 348° |
| 2026-04-15 16:19 | 41.61863 | 1.64157 | 23323 ft | 105 kts | 348° |
| 2026-04-15 16:19 | 41.62616 | 1.64054 | 23536 ft | 115 kts | 349° |
| 2026-04-15 16:20 | 41.63548 | 1.63904 | 23474 ft | 146 kts | 349° |
| 2026-04-15 16:20 | 41.64469 | 1.63728 | 24100 ft | 125 kts | 347° |
| 2026-04-15 16:20 | 41.65417 | 1.63518 | 24127 ft | 150 kts | 346° |
| 2026-04-15 16:20 | 41.66516 | 1.63247 | 24167 ft | 171 kts | 346° |
| 2026-04-15 16:21 | 41.67755 | 1.62931 | 24200 ft | 191 kts | 346° |
| 2026-04-15 16:21 | 41.69119 | 1.62578 | 24221 ft | 208 kts | 346° |
| 2026-04-15 16:21 | 41.70586 | 1.62199 | 24237 ft | 221 kts | 347° |
| 2026-04-15 16:21 | 41.72136 | 1.61804 | 24247 ft | 231 kts | 347° |
| 2026-04-15 16:22 | 41.73763 | 1.61661 | 24257 ft | 241 kts | 1° |
| 2026-04-15 16:22 | 41.75433 | 1.61906 | 24263 ft | 247 kts | 1° |
| 2026-04-15 16:22 | 41.77161 | 1.61911 | 24263 ft | 251 kts | 353° |
| 2026-04-15 16:22 | 41.78925 | 1.61584 | 24292 ft | 254 kts | 348° |
| 2026-04-15 16:23 | 41.80652 | 1.61240 | 24393 ft | 255 kts | 350° |
| 2026-04-15 16:23 | 41.82424 | 1.60972 | 24488 ft | 257 kts | 351° |
| 2026-04-15 16:23 | 41.84206 | 1.60711 | 24580 ft | 258 kts | 351° |
| 2026-04-15 16:23 | 41.85996 | 1.60426 | 24675 ft | 260 kts | 351° |
| 2026-04-15 16:24 | 41.87795 | 1.60140 | 24773 ft | 261 kts | 351° |
| 2026-04-15 16:24 | 41.89604 | 1.59857 | 24867 ft | 263 kts | 351° |
| 2026-04-15 16:24 | 41.91427 | 1.59570 | 24963 ft | 265 kts | 351° |
| 2026-04-15 16:24 | 41.93265 | 1.59281 | 25059 ft | 267 kts | 351° |
| 2026-04-15 16:25 | 41.95121 | 1.58987 | 25153 ft | 269 kts | 351° |
| 2026-04-15 16:25 | 41.96981 | 1.58693 | 25249 ft | 270 kts | 351° |
| 2026-04-15 16:25 | 41.98851 | 1.58397 | 25347 ft | 271 kts | 350° |
| 2026-04-15 16:25 | 42.00727 | 1.58098 | 25439 ft | 272 kts | 350° |
| 2026-04-15 16:26 | 42.02610 | 1.57801 | 25538 ft | 273 kts | 350° |
| 2026-04-15 16:26 | 42.04496 | 1.57503 | 25635 ft | 273 kts | 350° |
| 2026-04-15 16:26 | 42.06386 | 1.57206 | 25731 ft | 274 kts | 350° |
| 2026-04-15 16:26 | 42.08278 | 1.56902 | 25823 ft | 274 kts | 350° |
| 2026-04-15 16:27 | 42.10150 | 1.56608 | 25917 ft | 274 kts | 350° |
| 2026-04-15 16:27 | 42.12045 | 1.56307 | 26019 ft | 274 kts | 350° |
| 2026-04-15 16:27 | 42.13942 | 1.56005 | 26116 ft | 275 kts | 350° |
| 2026-04-15 16:27 | 42.15843 | 1.55704 | 26211 ft | 275 kts | 350° |
| 2026-04-15 16:28 | 42.17742 | 1.55401 | 26310 ft | 275 kts | 350° |
| 2026-04-15 16:28 | 42.19650 | 1.55098 | 26404 ft | 276 kts | 350° |
| 2026-04-15 16:28 | 42.21556 | 1.54794 | 26499 ft | 276 kts | 350° |
| 2026-04-15 16:28 | 42.23465 | 1.54489 | 26601 ft | 276 kts | 350° |
| 2026-04-15 16:29 | 42.25377 | 1.54182 | 26704 ft | 277 kts | 350° |
| 2026-04-15 16:29 | 42.27292 | 1.53878 | 26800 ft | 277 kts | 349° |
| 2026-04-15 16:29 | 42.29210 | 1.53572 | 26903 ft | 278 kts | 349° |
| 2026-04-15 16:29 | 42.31109 | 1.53269 | 27001 ft | 279 kts | 349° |
| 2026-04-15 16:30 | 42.33036 | 1.52962 | 27101 ft | 279 kts | 349° |
| 2026-04-15 16:30 | 42.34970 | 1.52653 | 27195 ft | 280 kts | 348° |
| 2026-04-15 16:30 | 42.36905 | 1.52341 | 27290 ft | 280 kts | 349° |
| 2026-04-15 16:30 | 42.38836 | 1.52032 | 27395 ft | 280 kts | 348° |
| 2026-04-15 16:31 | 42.40770 | 1.51725 | 27501 ft | 280 kts | 348° |
| 2026-04-15 16:31 | 42.42708 | 1.51414 | 27611 ft | 281 kts | 348° |
| 2026-04-15 16:31 | 42.44651 | 1.51100 | 27718 ft | 282 kts | 348° |
| 2026-04-15 16:31 | 42.46597 | 1.50788 | 27824 ft | 282 kts | 348° |
| 2026-04-15 16:32 | 42.48549 | 1.50473 | 27927 ft | 283 kts | 348° |
| 2026-04-15 16:32 | 42.50504 | 1.50157 | 28035 ft | 283 kts | 348° |
| 2026-04-15 16:32 | 42.52464 | 1.49842 | 28149 ft | 283 kts | 348° |
| 2026-04-15 16:32 | 42.54415 | 1.49527 | 28253 ft | 282 kts | 347° |
| 2026-04-15 16:33 | 42.56363 | 1.49215 | 28362 ft | 281 kts | 348° |
| 2026-04-15 16:33 | 42.58307 | 1.48898 | 28475 ft | 282 kts | 348° |
| 2026-04-15 16:33 | 42.60233 | 1.48587 | 28582 ft | 282 kts | 348° |
| 2026-04-15 16:33 | 42.62175 | 1.48259 | 28706 ft | 281 kts | 346° |
| 2026-04-15 16:34 | 42.64111 | 1.47865 | 28814 ft | 280 kts | 346° |
| 2026-04-15 16:34 | 42.66039 | 1.47497 | 28927 ft | 279 kts | 346° |
| 2026-04-15 16:34 | 42.67963 | 1.47118 | 29043 ft | 279 kts | 346° |
| 2026-04-15 16:34 | 42.69891 | 1.46729 | 29168 ft | 281 kts | 346° |
| 2026-04-15 16:35 | 42.71831 | 1.46347 | 29281 ft | 283 kts | 346° |
| 2026-04-15 16:35 | 42.73783 | 1.45961 | 29389 ft | 284 kts | 346° |
| 2026-04-15 16:35 | 42.75726 | 1.45575 | 29493 ft | 280 kts | 346° |
| 2026-04-15 16:35 | 42.77654 | 1.45194 | 29609 ft | 280 kts | 346° |
| 2026-04-15 16:36 | 42.79583 | 1.44812 | 29719 ft | 280 kts | 345° |
| 2026-04-15 16:36 | 42.81508 | 1.44432 | 29826 ft | 280 kts | 346° |
| 2026-04-15 16:36 | 42.83441 | 1.44048 | 29943 ft | 280 kts | 345° |
| 2026-04-15 16:36 | 42.85372 | 1.43664 | 30059 ft | 281 kts | 346° |
| 2026-04-15 16:37 | 42.87285 | 1.43283 | 30169 ft | 282 kts | 345° |
| 2026-04-15 16:37 | 42.89232 | 1.42893 | 30213 ft | 284 kts | 345° |
| 2026-04-15 16:37 | 42.91199 | 1.42503 | 30214 ft | 288 kts | 346° |
| 2026-04-15 16:37 | 42.93186 | 1.42111 | 30214 ft | 290 kts | 346° |
| 2026-04-15 16:38 | 42.95185 | 1.41711 | 30219 ft | 291 kts | 346° |
| 2026-04-15 16:38 | 42.97201 | 1.41307 | 30219 ft | 294 kts | 346° |
| 2026-04-15 16:38 | 42.99231 | 1.40905 | 30218 ft | 295 kts | 346° |
| 2026-04-15 16:38 | 43.01271 | 1.40500 | 30231 ft | 297 kts | 346° |
| 2026-04-15 16:39 | 43.03323 | 1.40089 | 30224 ft | 299 kts | 346° |
| 2026-04-15 16:39 | 43.05384 | 1.39676 | 30226 ft | 300 kts | 346° |
| 2026-04-15 16:39 | 43.06752 | 1.39403 | 30227 ft | 301 kts | 346° |
| 2026-04-15 16:40 | 43.10908 | 1.38570 | 30226 ft | 303 kts | 346° |
| 2026-04-15 16:40 | 43.15084 | 1.37732 | 30225 ft | 304 kts | 346° |
| 2026-04-15 16:41 | 43.19273 | 1.36894 | 30225 ft | 304 kts | 346° |
| 2026-04-15 16:41 | 43.23462 | 1.36050 | 30222 ft | 305 kts | 346° |
| 2026-04-15 16:42 | 43.27661 | 1.35208 | 30217 ft | 305 kts | 346° |
| 2026-04-15 16:42 | 43.31848 | 1.34365 | 30216 ft | 305 kts | 346° |
| 2026-04-15 16:43 | 43.36053 | 1.33510 | 30219 ft | 305 kts | 345° |
| 2026-04-15 16:43 | 43.40232 | 1.32496 | 30216 ft | 305 kts | 345° |
| 2026-04-15 16:44 | 43.44417 | 1.31593 | 30215 ft | 307 kts | 345° |
| 2026-04-15 16:44 | 43.48634 | 1.30645 | 30215 ft | 307 kts | 345° |
| 2026-04-15 16:45 | 43.52862 | 1.29706 | 30215 ft | 308 kts | 345° |
| 2026-04-15 16:45 | 43.54940 | 1.29246 | 30217 ft | 293 kts | 345° |
| 2026-04-15 16:45 | 43.56959 | 1.28793 | 30207 ft | 294 kts | 344° |
| 2026-04-15 16:45 | 43.58965 | 1.28341 | 30202 ft | 293 kts | 344° |
| 2026-04-15 16:46 | 43.60988 | 1.27886 | 30203 ft | 296 kts | 345° |
| 2026-04-15 16:46 | 43.63030 | 1.27431 | 30216 ft | 298 kts | 344° |
| 2026-04-15 16:46 | 43.65086 | 1.26970 | 30217 ft | 300 kts | 345° |
| 2026-04-15 16:47 | 43.69236 | 1.26039 | 30220 ft | 302 kts | 345° |
| 2026-04-15 16:47 | 43.73355 | 1.25115 | 30220 ft | 301 kts | 345° |
| 2026-04-15 16:47 | 43.75419 | 1.24650 | 30217 ft | 300 kts | 344° |
| 2026-04-15 16:48 | 43.77478 | 1.24185 | 30217 ft | 299 kts | 344° |
| 2026-04-15 16:48 | 43.79533 | 1.23722 | 30217 ft | 299 kts | 344° |
| 2026-04-15 16:48 | 43.81587 | 1.23261 | 30216 ft | 299 kts | 344° |
| 2026-04-15 16:48 | 43.83642 | 1.22798 | 30216 ft | 300 kts | 344° |
| 2026-04-15 16:49 | 43.85711 | 1.22330 | 30217 ft | 302 kts | 344° |
| 2026-04-15 16:49 | 43.89878 | 1.21392 | 30220 ft | 303 kts | 344° |
| 2026-04-15 16:50 | 43.94030 | 1.20453 | 30218 ft | 302 kts | 344° |
| 2026-04-15 16:50 | 43.98171 | 1.19515 | 30217 ft | 301 kts | 344° |
| 2026-04-15 16:51 | 44.02305 | 1.18576 | 30233 ft | 301 kts | 344° |
| 2026-04-15 16:51 | 44.06469 | 1.17628 | 30217 ft | 306 kts | 344° |
| 2026-04-15 16:52 | 44.10666 | 1.16674 | 30218 ft | 305 kts | 344° |
| 2026-04-15 16:52 | 44.14820 | 1.15729 | 30224 ft | 304 kts | 344° |
| 2026-04-15 16:53 | 44.18981 | 1.14780 | 30217 ft | 303 kts | 344° |
| 2026-04-15 16:53 | 44.23155 | 1.13827 | 30218 ft | 306 kts | 344° |
| 2026-04-15 16:54 | 44.27383 | 1.12861 | 30216 ft | 308 kts | 344° |
| 2026-04-15 16:54 | 44.31595 | 1.11894 | 30218 ft | 306 kts | 344° |
| 2026-04-15 16:55 | 44.35788 | 1.10934 | 30216 ft | 305 kts | 344° |
| 2026-04-15 16:55 | 44.39969 | 1.09970 | 30218 ft | 304 kts | 344° |
| 2026-04-15 16:56 | 44.44155 | 1.09006 | 30219 ft | 307 kts | 344° |
| 2026-04-15 16:56 | 44.48384 | 1.08033 | 30222 ft | 308 kts | 344° |
| 2026-04-15 16:57 | 44.52622 | 1.07057 | 30221 ft | 308 kts | 344° |
| 2026-04-15 16:57 | 44.56828 | 1.06087 | 30221 ft | 308 kts | 344° |
| 2026-04-15 16:58 | 44.61053 | 1.05106 | 30223 ft | 308 kts | 344° |
| 2026-04-15 16:58 | 44.65279 | 1.04128 | 30220 ft | 308 kts | 344° |
| 2026-04-15 16:59 | 44.69501 | 1.03146 | 30219 ft | 308 kts | 344° |
| 2026-04-15 16:59 | 44.73721 | 1.02165 | 30218 ft | 307 kts | 344° |
| 2026-04-15 17:00 | 44.77945 | 1.01181 | 30217 ft | 307 kts | 344° |
| 2026-04-15 17:00 | 44.82158 | 1.00202 | 30216 ft | 307 kts | 344° |
| 2026-04-15 17:01 | 44.86369 | 0.99216 | 30223 ft | 307 kts | 344° |
| 2026-04-15 17:01 | 44.90571 | 0.98235 | 30224 ft | 307 kts | 344° |
| 2026-04-15 17:02 | 44.94753 | 0.97256 | 30224 ft | 308 kts | 344° |
| 2026-04-15 17:02 | 44.98984 | 0.96263 | 30226 ft | 309 kts | 344° |
| 2026-04-15 17:03 | 45.03147 | 0.95287 | 30216 ft | 297 kts | 345° |
| 2026-04-15 17:03 | 45.05195 | 0.94801 | 30214 ft | 299 kts | 345° |
| 2026-04-15 17:03 | 45.07250 | 0.94315 | 30214 ft | 300 kts | 345° |
| 2026-04-15 17:03 | 45.09313 | 0.93831 | 30215 ft | 300 kts | 345° |
| 2026-04-15 17:04 | 45.11377 | 0.93348 | 30211 ft | 301 kts | 345° |
| 2026-04-15 17:04 | 45.15487 | 0.92376 | 30209 ft | 301 kts | 345° |
| 2026-04-15 17:05 | 45.19627 | 0.91401 | 30217 ft | 302 kts | 345° |
| 2026-04-15 17:05 | 45.23781 | 0.90418 | 30219 ft | 302 kts | 345° |
| 2026-04-15 17:06 | 45.27921 | 0.89435 | 30217 ft | 301 kts | 345° |
| 2026-04-15 17:06 | 45.29982 | 0.88947 | 30216 ft | 300 kts | 345° |
| 2026-04-15 17:06 | 45.32041 | 0.88456 | 30216 ft | 300 kts | 345° |
| 2026-04-15 17:06 | 45.34096 | 0.87967 | 30217 ft | 300 kts | 345° |
| 2026-04-15 17:07 | 45.36154 | 0.87479 | 30217 ft | 300 kts | 345° |
| 2026-04-15 17:07 | 45.38210 | 0.86989 | 30225 ft | 299 kts | 345° |
| 2026-04-15 17:07 | 45.40271 | 0.86498 | 30242 ft | 301 kts | 345° |
| 2026-04-15 17:08 | 45.44430 | 0.85508 | 30233 ft | 304 kts | 345° |
| 2026-04-15 17:08 | 45.48588 | 0.84518 | 30231 ft | 302 kts | 345° |
| 2026-04-15 17:09 | 45.52704 | 0.83532 | 30226 ft | 301 kts | 345° |
| 2026-04-15 17:09 | 45.56837 | 0.82544 | 30229 ft | 301 kts | 345° |
| 2026-04-15 17:10 | 45.60978 | 0.81547 | 30231 ft | 303 kts | 345° |
| 2026-04-15 17:10 | 45.65142 | 0.80547 | 30236 ft | 304 kts | 345° |
| 2026-04-15 17:11 | 45.69330 | 0.79542 | 30234 ft | 304 kts | 345° |
| 2026-04-15 17:11 | 45.73475 | 0.78541 | 30231 ft | 302 kts | 345° |
| 2026-04-15 17:12 | 45.79692 | 0.77041 | 30235 ft | 303 kts | 344° |
| 2026-04-15 17:12 | 45.83862 | 0.76036 | 30238 ft | 305 kts | 344° |
| 2026-04-15 17:13 | 45.88056 | 0.75021 | 30236 ft | 305 kts | 344° |
| 2026-04-15 17:13 | 45.92235 | 0.74003 | 30235 ft | 304 kts | 344° |
| 2026-04-15 17:14 | 45.96404 | 0.72991 | 30231 ft | 303 kts | 344° |
| 2026-04-15 17:14 | 46.00564 | 0.71980 | 30229 ft | 303 kts | 343° |
| 2026-04-15 17:15 | 46.04690 | 0.70974 | 30228 ft | 302 kts | 343° |
| 2026-04-15 17:15 | 46.08833 | 0.69962 | 30225 ft | 302 kts | 343° |
| 2026-04-15 17:16 | 46.12980 | 0.68953 | 30225 ft | 302 kts | 343° |
| 2026-04-15 17:16 | 46.17120 | 0.67935 | 30235 ft | 302 kts | 343° |
| 2026-04-15 17:17 | 46.21293 | 0.66914 | 30225 ft | 305 kts | 343° |
| 2026-04-15 17:17 | 46.25468 | 0.65887 | 30226 ft | 306 kts | 343° |
| 2026-04-15 17:18 | 46.29665 | 0.64857 | 30225 ft | 305 kts | 343° |
| 2026-04-15 17:18 | 46.33841 | 0.63827 | 30222 ft | 304 kts | 343° |
| 2026-04-15 17:19 | 46.38008 | 0.62798 | 30223 ft | 304 kts | 343° |
| 2026-04-15 17:19 | 46.42178 | 0.61771 | 30221 ft | 304 kts | 343° |
| 2026-04-15 17:20 | 46.46341 | 0.60742 | 30214 ft | 303 kts | 343° |
| 2026-04-15 17:20 | 46.50502 | 0.59708 | 30214 ft | 303 kts | 343° |
| 2026-04-15 17:21 | 46.54659 | 0.58678 | 30216 ft | 303 kts | 343° |
| 2026-04-15 17:21 | 46.58822 | 0.57641 | 30215 ft | 306 kts | 342° |
| 2026-04-15 17:22 | 46.63045 | 0.56590 | 30220 ft | 308 kts | 342° |
| 2026-04-15 17:22 | 46.67238 | 0.55544 | 30219 ft | 307 kts | 342° |
| 2026-04-15 17:23 | 46.71446 | 0.54493 | 30214 ft | 307 kts | 342° |
| 2026-04-15 17:23 | 46.75647 | 0.53443 | 30211 ft | 306 kts | 342° |
| 2026-04-15 17:24 | 46.79846 | 0.52392 | 30214 ft | 306 kts | 342° |
| 2026-04-15 17:24 | 46.84037 | 0.51340 | 30210 ft | 305 kts | 342° |
| 2026-04-15 17:25 | 46.88227 | 0.50286 | 30209 ft | 305 kts | 342° |
| 2026-04-15 17:25 | 46.92382 | 0.49240 | 30208 ft | 305 kts | 342° |
| 2026-04-15 17:26 | 46.96568 | 0.48183 | 30207 ft | 305 kts | 342° |
| 2026-04-15 17:26 | 47.00779 | 0.47118 | 30206 ft | 308 kts | 342° |
| 2026-04-15 17:27 | 47.05023 | 0.46047 | 30209 ft | 310 kts | 342° |
| 2026-04-15 17:27 | 47.09253 | 0.44978 | 30207 ft | 308 kts | 342° |
| 2026-04-15 17:28 | 47.13475 | 0.43965 | 30209 ft | 306 kts | 342° |
| 2026-04-15 17:28 | 47.17649 | 0.42943 | 30203 ft | 306 kts | 342° |
| 2026-04-15 17:29 | 47.21196 | 0.42074 | 30197 ft | 310 kts | 342° |
| 2026-04-15 17:29 | 47.25442 | 0.41039 | 30196 ft | 311 kts | 341° |
| 2026-04-15 17:30 | 47.29673 | 0.40003 | 30194 ft | 307 kts | 341° |
| 2026-04-15 17:30 | 47.33888 | 0.38967 | 30190 ft | 307 kts | 341° |
| 2026-04-15 17:31 | 47.38109 | 0.37931 | 30196 ft | 307 kts | 341° |
| 2026-04-15 17:31 | 47.42325 | 0.36893 | 30195 ft | 310 kts | 340° |
| 2026-04-15 17:32 | 47.46597 | 0.35845 | 30196 ft | 311 kts | 340° |
| 2026-04-15 17:32 | 47.50871 | 0.34790 | 30194 ft | 310 kts | 340° |
| 2026-04-15 17:33 | 47.55109 | 0.33739 | 30191 ft | 308 kts | 340° |
| 2026-04-15 17:33 | 47.59302 | 0.32701 | 30203 ft | 307 kts | 340° |
| 2026-04-15 17:34 | 47.63540 | 0.31648 | 30190 ft | 309 kts | 340° |
| 2026-04-15 17:34 | 47.67776 | 0.30596 | 30190 ft | 308 kts | 340° |
| 2026-04-15 17:35 | 47.72015 | 0.29541 | 30190 ft | 309 kts | 340° |
| 2026-04-15 17:35 | 47.76248 | 0.28437 | 30189 ft | 308 kts | 340° |
| 2026-04-15 17:36 | 47.80546 | 0.27825 | 30209 ft | 326 kts | 356° |
| 2026-04-15 17:36 | 47.82786 | 0.28823 | 30191 ft | 347 kts | 17° |
| 2026-04-15 17:36 | 47.84827 | 0.30848 | 30193 ft | 359 kts | 34° |
| 2026-04-15 17:37 | 47.88483 | 0.35873 | 30179 ft | 358 kts | 32° |
| 2026-04-15 17:37 | 47.90515 | 0.37977 | 30067 ft | 356 kts | 25° |
| 2026-04-15 17:37 | 47.92609 | 0.39916 | 29873 ft | 353 kts | 25° |
| 2026-04-15 17:38 | 47.94635 | 0.41956 | 29641 ft | 351 kts | 29° |
| 2026-04-15 17:38 | 47.96086 | 0.43558 | 29444 ft | 348 kts | 31° |
| 2026-04-15 17:38 | 47.98358 | 0.46016 | 29293 ft | 341 kts | 28° |
| 2026-04-15 17:39 | 48.00351 | 0.48053 | 28828 ft | 351 kts | 28° |
| 2026-04-15 17:39 | 48.02352 | 0.50130 | 28301 ft | 351 kts | 29° |
| 2026-04-15 17:39 | 48.04348 | 0.52256 | 27607 ft | 353 kts | 30° |
| 2026-04-15 17:39 | 48.06340 | 0.54373 | 26971 ft | 349 kts | 29° |
| 2026-04-15 17:40 | 48.08317 | 0.56451 | 26396 ft | 346 kts | 28° |
| 2026-04-15 17:40 | 48.10291 | 0.58524 | 25845 ft | 348 kts | 29° |
| 2026-04-15 17:40 | 48.12272 | 0.60618 | 25300 ft | 349 kts | 29° |
| 2026-04-15 17:40 | 48.14254 | 0.62720 | 24765 ft | 349 kts | 29° |
| 2026-04-15 17:41 | 48.16244 | 0.64827 | 24249 ft | 350 kts | 29° |
| 2026-04-15 17:41 | 48.18235 | 0.66936 | 23743 ft | 350 kts | 29° |
| 2026-04-15 17:41 | 48.20219 | 0.69040 | 23157 ft | 350 kts | 29° |
| 2026-04-15 17:41 | 48.22207 | 0.71151 | 22557 ft | 350 kts | 30° |
| 2026-04-15 17:42 | 48.24214 | 0.73281 | 22006 ft | 353 kts | 30° |
| 2026-04-15 17:42 | 48.26217 | 0.75413 | 21564 ft | 355 kts | 30° |
| 2026-04-15 17:42 | 48.28236 | 0.77564 | 21131 ft | 355 kts | 30° |
| 2026-04-15 17:42 | 48.30250 | 0.79713 | 20707 ft | 355 kts | 30° |
| 2026-04-15 17:43 | 48.32265 | 0.81862 | 20284 ft | 355 kts | 31° |
| 2026-04-15 17:43 | 48.34147 | 0.84302 | 19870 ft | 362 kts | 44° |
| 2026-04-15 17:43 | 48.35662 | 0.87337 | 19442 ft | 364 kts | 58° |
| 2026-04-15 17:43 | 48.36837 | 0.90693 | 19048 ft | 362 kts | 63° |
| 2026-04-15 17:44 | 48.37997 | 0.94062 | 18660 ft | 363 kts | 63° |
| 2026-04-15 17:44 | 48.39170 | 0.97423 | 18237 ft | 363 kts | 62° |
| 2026-04-15 17:44 | 48.40343 | 1.00790 | 17796 ft | 363 kts | 63° |
| 2026-04-15 17:44 | 48.41501 | 1.04156 | 17357 ft | 361 kts | 63° |
| 2026-04-15 17:45 | 48.42639 | 1.07464 | 16925 ft | 359 kts | 63° |
| 2026-04-15 17:45 | 48.43783 | 1.10779 | 16516 ft | 353 kts | 63° |
| 2026-04-15 17:45 | 48.44907 | 1.14050 | 16100 ft | 350 kts | 63° |
| 2026-04-15 17:45 | 48.46021 | 1.17292 | 15693 ft | 347 kts | 62° |
| 2026-04-15 17:46 | 48.47125 | 1.20511 | 15296 ft | 343 kts | 62° |
| 2026-04-15 17:46 | 48.48216 | 1.23695 | 14908 ft | 340 kts | 62° |
| 2026-04-15 17:46 | 48.49292 | 1.26833 | 14755 ft | 338 kts | 62° |
| 2026-04-15 17:46 | 48.50357 | 1.29971 | 14601 ft | 335 kts | 63° |
| 2026-04-15 17:47 | 48.51320 | 1.33184 | 14457 ft | 335 kts | 67° |
| 2026-04-15 17:47 | 48.52223 | 1.36416 | 14304 ft | 334 kts | 66° |
| 2026-04-15 17:47 | 48.53178 | 1.39609 | 14154 ft | 333 kts | 65° |
| 2026-04-15 17:47 | 48.54156 | 1.42774 | 14005 ft | 332 kts | 65° |
| 2026-04-15 17:48 | 48.55109 | 1.45953 | 13852 ft | 332 kts | 66° |
| 2026-04-15 17:48 | 48.56047 | 1.49133 | 13678 ft | 331 kts | 66° |
| 2026-04-15 17:48 | 48.56990 | 1.52289 | 13512 ft | 329 kts | 65° |
| 2026-04-15 17:48 | 48.57934 | 1.55437 | 13353 ft | 328 kts | 65° |
| 2026-04-15 17:49 | 48.58869 | 1.58577 | 13183 ft | 327 kts | 65° |
| 2026-04-15 17:49 | 48.59797 | 1.61709 | 13037 ft | 326 kts | 65° |
| 2026-04-15 17:49 | 48.60723 | 1.64831 | 12880 ft | 325 kts | 65° |
| 2026-04-15 17:49 | 48.61645 | 1.67936 | 12728 ft | 322 kts | 65° |
| 2026-04-15 17:50 | 48.62558 | 1.71020 | 12578 ft | 320 kts | 65° |
| 2026-04-15 17:50 | 48.63469 | 1.74096 | 12417 ft | 321 kts | 65° |
| 2026-04-15 17:50 | 48.64379 | 1.77179 | 12270 ft | 321 kts | 66° |
| 2026-04-15 17:50 | 48.65291 | 1.80268 | 12127 ft | 322 kts | 65° |
| 2026-04-15 17:51 | 48.66198 | 1.83343 | 11978 ft | 319 kts | 65° |
| 2026-04-15 17:51 | 48.67102 | 1.86386 | 11828 ft | 316 kts | 64° |
| 2026-04-15 17:51 | 48.68104 | 1.89358 | 11685 ft | 317 kts | 61° |
| 2026-04-15 17:51 | 48.69143 | 1.92289 | 11541 ft | 316 kts | 61° |
| 2026-04-15 17:52 | 48.70137 | 1.95256 | 11396 ft | 315 kts | 63° |
| 2026-04-15 17:52 | 48.71100 | 1.98219 | 11258 ft | 313 kts | 63° |
| 2026-04-15 17:52 | 48.72077 | 2.01157 | 11083 ft | 312 kts | 62° |
| 2026-04-15 17:52 | 48.73049 | 2.04049 | 10819 ft | 310 kts | 62° |
| 2026-04-15 17:53 | 48.74019 | 2.06954 | 10566 ft | 308 kts | 62° |
| 2026-04-15 17:53 | 48.74977 | 2.09846 | 10302 ft | 306 kts | 62° |
| 2026-04-15 17:53 | 48.75928 | 2.12711 | 10035 ft | 303 kts | 62° |
| 2026-04-15 17:53 | 48.76872 | 2.15554 | 9745 ft | 301 kts | 62° |
| 2026-04-15 17:54 | 48.77816 | 2.18400 | 9464 ft | 300 kts | 62° |
| 2026-04-15 17:54 | 48.78744 | 2.21209 | 9190 ft | 297 kts | 62° |
| 2026-04-15 17:54 | 48.79672 | 2.24017 | 8921 ft | 299 kts | 62° |
| 2026-04-15 17:54 | 48.80596 | 2.26817 | 8645 ft | 295 kts | 62° |
| 2026-04-15 17:55 | 48.81514 | 2.29602 | 8390 ft | 295 kts | 62° |
| 2026-04-15 17:55 | 48.82430 | 2.32385 | 8130 ft | 294 kts | 62° |
| 2026-04-15 17:55 | 48.83341 | 2.35154 | 7887 ft | 293 kts | 62° |
| 2026-04-15 17:55 | 48.84221 | 2.37832 | 7639 ft | 291 kts | 62° |
| 2026-04-15 17:56 | 48.84242 | 2.37894 | 7634 ft | 291 kts | 62° |
| 2026-04-15 17:56 | 48.85145 | 2.40641 | 7380 ft | 288 kts | 62° |
| 2026-04-15 17:56 | 48.85423 | 2.41488 | 7354 ft | 288 kts | 62° |
| 2026-04-15 17:56 | 48.86323 | 2.44238 | 7073 ft | 289 kts | 62° |
| 2026-04-15 17:57 | 48.87270 | 2.46940 | 6690 ft | 289 kts | 54° |
| 2026-04-15 17:57 | 48.88445 | 2.49388 | 6070 ft | 284 kts | 52° |
| 2026-04-15 17:57 | 48.89630 | 2.51673 | 5405 ft | 263 kts | 40° |
| 2026-04-15 17:57 | 48.91109 | 2.53023 | 4772 ft | 236 kts | 17° |
| 2026-04-15 17:58 | 48.92648 | 2.53475 | 4160 ft | 219 kts | 356° |
| 2026-04-15 17:58 | 48.94112 | 2.53170 | 3591 ft | 208 kts | 339° |
| 2026-04-15 17:58 | 48.95367 | 2.52263 | 3028 ft | 191 kts | 321° |
| 2026-04-15 17:58 | 48.96307 | 2.50967 | 2565 ft | 172 kts | 302° |
| 2026-04-15 17:59 | 48.96482 | 2.49419 | 2540 ft | 145 kts | 247° |
| 2026-04-15 17:59 | 48.95711 | 2.48626 | 2549 ft | 139 kts | 186° |
| 2026-04-15 17:59 | 48.94922 | 2.49437 | 2544 ft | 152 kts | 120° |
| 2026-04-15 17:59 | 48.94999 | 2.51030 | 2549 ft | 159 kts | 69° |
| 2026-04-15 18:00 | 48.95383 | 2.52615 | 2557 ft | 161 kts | 82° |
| 2026-04-15 18:00 | 48.95127 | 2.54191 | 2556 ft | 152 kts | 124° |
| 2026-04-15 18:00 | 48.94640 | 2.55625 | 2556 ft | 153 kts | 121° |
| 2026-04-15 18:00 | 48.94094 | 2.56995 | 2562 ft | 149 kts | 136° |
| 2026-04-15 18:01 | 48.93410 | 2.58177 | 2567 ft | 149 kts | 137° |
| 2026-04-15 18:01 | 48.92709 | 2.59410 | 2567 ft | 159 kts | 137° |
| 2026-04-15 18:01 | 48.91990 | 2.60708 | 2566 ft | 162 kts | 136° |
| 2026-04-15 18:01 | 48.91256 | 2.62005 | 2566 ft | 163 kts | 134° |
| 2026-04-15 18:02 | 48.90785 | 2.63580 | 2543 ft | 173 kts | 96° |
| 2026-04-15 18:02 | 48.91273 | 2.65207 | 2541 ft | 174 kts | 38° |
| 2026-04-15 18:02 | 48.92381 | 2.65577 | 2545 ft | 163 kts | 340° |
| 2026-04-15 18:02 | 48.93372 | 2.64809 | 2559 ft | 161 kts | 326° |
| 2026-04-15 18:03 | 48.94367 | 2.64024 | 2558 ft | 160 kts | 327° |
| 2026-04-15 18:03 | 48.95283 | 2.63081 | 2558 ft | 159 kts | 318° |
| 2026-04-15 18:03 | 48.96033 | 2.61878 | 2556 ft | 156 kts | 301° |
| 2026-04-15 18:03 | 48.96679 | 2.60542 | 2522 ft | 158 kts | 302° |
| 2026-04-15 18:04 | 48.97165 | 2.59144 | 2362 ft | 142 kts | 275° |
| 2026-04-15 18:04 | 48.97159 | 2.57781 | 2215 ft | 111 kts | 266° |
| 2026-04-15 18:04 | 48.97138 | 2.56707 | 2008 ft | 93 kts | 261° |
| 2026-04-15 18:04 | 48.97105 | 2.55791 | 1944 ft | 83 kts | 260° |
| 2026-04-15 18:05 | 48.97054 | 2.54900 | 1873 ft | 88 kts | 259° |
| 2026-04-15 18:05 | 48.96954 | 2.53912 | 1652 ft | 100 kts | 257° |
| 2026-04-15 18:05 | 48.96891 | 2.52849 | 1479 ft | 103 kts | 261° |
| 2026-04-15 18:05 | 48.96852 | 2.51727 | 1252 ft | 109 kts | 262° |
| 2026-04-15 18:06 | 48.96817 | 2.50914 | 1090 ft | 110 kts | 259° |
| 2026-04-15 18:06 | 48.96790 | 2.50309 | 1054 ft | 104 kts | 263° |
| 2026-04-15 18:06 | 48.96751 | 2.49202 | 884 ft | 107 kts | 259° |
| 2026-04-15 18:07 | 48.96706 | 2.48087 | 698 ft | 104 kts | 261° |
| 2026-04-15 18:07 | 48.96645 | 2.46983 | 564 ft | 107 kts | 260° |
| 2026-04-15 18:07 | 48.96572 | 2.45857 | 413 ft | 104 kts | 259° |
| 2026-04-15 18:07 | 48.96516 | 2.44749 | 247 ft | 107 kts | 260° |
| 2026-04-15 18:08 | 48.96458 | 2.43671 | 168 ft | 91 kts | 261° |
| 2026-04-15 18:08 | 48.96413 | 2.42974 | 163 ft | 20 kts | 259° |
| 2026-04-15 18:08 | 48.96405 | 2.42846 | 163 ft | 17 kts | 267° |
| 2026-04-15 18:08 | 48.96395 | 2.42629 | 157 ft | 26 kts | 266° |
| 2026-04-15 18:09 | 48.96256 | 2.42558 | 156 ft | 27 kts | 124° |
| 2026-04-15 18:09 | 48.96124 | 2.42808 | 148 ft | 32 kts | 132° |
| 2026-04-15 18:09 | 48.96032 | 2.42990 | 147 ft | 34 kts | 130° |
| 2026-04-15 18:09 | 48.95911 | 2.43292 | 154 ft | 33 kts | 112° |
| 2026-04-15 18:10 | 48.95815 | 2.43610 | 151 ft | 33 kts | 116° |
| 2026-04-15 18:10 | 48.95733 | 2.43662 | 150 ft | 14 kts | 202° |
| 2026-04-15 18:10 | 48.95616 | 2.43584 | 150 ft | 22 kts | 203° |
| 2026-04-15 18:10 | 48.95443 | 2.43463 | 149 ft | 32 kts | 201° |
| 2026-04-15 18:11 | 48.95245 | 2.43337 | 149 ft | 20 kts | 183° |
| 2026-04-15 18:11 | 48.95172 | 2.43447 | 147 ft | 13 kts | 115° |
| 2026-04-15 18:11 | 48.95118 | 2.43575 | 146 ft | 11 kts | 164° |
| 2026-04-15 18:11 | 48.95054 | 2.43556 | 147 ft | 13 kts | 211° |
| 2026-04-15 18:12 | 48.94988 | 2.43406 | 148 ft | 18 kts | 215° |
| 2026-04-15 18:12 | 48.96817 | 2.50914 | 1090 ft | 110 kts | 259° |
| 2026-04-15 18:12 | 48.96446 | 2.43462 | 165 ft | 81 kts | 261° |